createdAt,value
2018-04-27T00:00:04.106Z,6.44
2018-04-27T00:01:13.984Z,6.52
2018-04-27T00:02:23.663Z,6.45
2018-04-27T00:03:33.817Z,6.38
2018-04-27T00:04:43.943Z,6.28
2018-04-27T00:05:54.161Z,6.28
2018-04-27T00:07:03.676Z,6.21
2018-04-27T00:08:13.800Z,6.27
2018-04-27T00:09:24.055Z,6.16
2018-04-27T00:10:34.188Z,6.19
2018-04-27T00:11:44.333Z,6.19
2018-04-27T00:12:54.492Z,6.16
2018-04-27T00:14:04.747Z,6.19
2018-04-27T00:15:14.967Z,6.12
2018-04-27T00:16:24.738Z,6.11
2018-04-27T00:17:35.107Z,6.05
2018-04-27T00:18:45.243Z,6.02
2018-04-27T00:19:55.132Z,6.06
2018-04-27T00:21:05.275Z,6.05
2018-04-27T00:22:15.406Z,6.01
2018-04-27T00:23:25.559Z,6.08
2018-04-27T00:24:35.375Z,6.09
2018-04-27T00:25:45.549Z,6.19
2018-04-27T00:26:55.766Z,6.17
2018-04-27T00:28:05.938Z,6.17
2018-04-27T00:29:16.078Z,6.14
2018-04-27T00:30:26.190Z,6.16
2018-04-27T00:31:36.324Z,6.17
2018-04-27T00:32:46.482Z,6.17
2018-04-27T00:33:56.626Z,6.23
2018-04-27T00:35:06.744Z,6.16
2018-04-27T00:36:16.887Z,6.27
2018-04-27T00:37:27.044Z,6.31
2018-04-27T00:38:37.178Z,6.3
2018-04-27T00:39:47.310Z,6.34
2018-04-27T00:40:57.512Z,6.31
2018-04-27T00:42:07.381Z,6.34
2018-04-27T00:43:17.509Z,6.3
2018-04-27T00:44:27.632Z,6.31
2018-04-27T00:45:37.782Z,6.38
2018-04-27T00:46:47.963Z,6.31
2018-04-27T00:47:57.832Z,6.27
2018-04-27T00:49:07.840Z,6.3
2018-04-27T00:50:17.975Z,6.21
2018-04-27T00:51:28.004Z,6.11
2018-04-27T00:52:38.159Z,6.23
2018-04-27T00:53:48.329Z,6.14
2018-04-27T00:54:58.471Z,6.14
2018-04-27T00:56:08.589Z,6.12
2018-04-27T00:57:18.739Z,6.08
2018-04-27T00:58:28.894Z,6.03
2018-04-27T00:59:39.131Z,6.06
2018-04-27T01:00:48.895Z,6.06
2018-04-27T01:01:59.042Z,6.11
2018-04-27T01:03:09.168Z,6.11
2018-04-27T01:04:19.310Z,6.03
2018-04-27T01:05:29.492Z,6.06
2018-04-27T01:06:39.665Z,6.05
2018-04-27T01:07:49.779Z,6.12
2018-04-27T01:08:59.966Z,6.06
2018-04-27T01:10:09.756Z,6.17
2018-04-27T01:11:19.870Z,6.17
2018-04-27T01:12:30.017Z,6.12
2018-04-27T01:13:40.198Z,6.17
2018-04-27T01:14:50.407Z,6.16
2018-04-27T01:16:00.531Z,6.19
2018-04-27T01:17:10.671Z,6.19
2018-04-27T01:18:20.787Z,6.26
2018-04-27T01:19:30.911Z,6.21
2018-04-27T01:20:41.157Z,6.23
2018-04-27T01:21:51.300Z,6.17
2018-04-27T01:23:01.446Z,6.09
2018-04-27T01:24:11.201Z,6.16
2018-04-27T01:25:21.420Z,6.19
2018-04-27T01:26:31.672Z,6.12
2018-04-27T01:27:41.829Z,6.14
2018-04-27T01:28:52.124Z,6.06
2018-04-27T01:30:02.272Z,6.14
2018-04-27T01:31:12.045Z,6.11
2018-04-27T01:32:22.215Z,6.12
2018-04-27T01:33:32.325Z,6.12
2018-04-27T01:34:42.470Z,6.08
2018-04-27T01:35:52.591Z,6.03
2018-04-27T01:37:02.704Z,6.09
2018-04-27T01:38:12.822Z,6.08
2018-04-27T01:39:23.035Z,6.06
2018-04-27T01:40:33.198Z,6.03
2018-04-27T01:41:43.051Z,6.08
2018-04-27T01:42:53.169Z,5.99
2018-04-27T01:44:03.128Z,6.05
2018-04-27T01:45:13.338Z,5.94
2018-04-27T01:46:23.481Z,6.01
2018-04-27T01:47:33.361Z,6.02
2018-04-27T01:48:43.499Z,5.93
2018-04-27T01:49:53.352Z,5.99
2018-04-27T01:51:03.490Z,6.02
2018-04-27T01:52:13.296Z,5.99
2018-04-27T01:53:23.427Z,6.01
2018-04-27T01:54:33.582Z,5.96
2018-04-27T01:55:43.826Z,6.03
2018-04-27T01:56:54.030Z,5.94
2018-04-27T01:58:04.238Z,5.99
2018-04-27T01:59:14.351Z,6.01
2018-04-27T02:00:24.493Z,5.99
2018-04-27T02:01:34.625Z,6.01
2018-04-27T02:02:44.771Z,6.05
2018-04-27T02:03:54.899Z,5.96
2018-04-27T02:05:05.093Z,6.09
2018-04-27T02:06:15.395Z,6.09
2018-04-27T02:07:25.565Z,6.05
2018-04-27T02:08:35.436Z,5.99
2018-04-27T02:09:45.571Z,5.99
2018-04-27T02:10:55.709Z,6.02
2018-04-27T02:12:06.824Z,6.09
2018-04-27T02:13:16.696Z,6.03
2018-04-27T02:14:26.814Z,6.08
2018-04-27T02:15:37.093Z,6.03
2018-04-27T02:16:47.342Z,6.01
2018-04-27T02:17:57.208Z,6.01
2018-04-27T02:19:06.975Z,6.06
2018-04-27T02:20:17.118Z,5.88
2018-04-27T02:21:27.268Z,5.88
2018-04-27T02:22:37.501Z,5.9
2018-04-27T02:23:47.690Z,5.91
2018-04-27T02:24:57.551Z,5.88
2018-04-27T02:26:07.413Z,6.01
2018-04-27T02:27:17.571Z,5.96
2018-04-27T02:28:27.722Z,5.96
2018-04-27T02:29:37.490Z,5.99
2018-04-27T02:30:47.632Z,6.01
2018-04-27T02:31:57.798Z,5.88
2018-04-27T02:33:07.959Z,5.9
2018-04-27T02:34:18.104Z,5.94
2018-04-27T02:35:28.264Z,5.79
2018-04-27T02:36:38.395Z,5.88
2018-04-27T02:37:48.407Z,5.93
2018-04-27T02:38:58.573Z,5.91
2018-04-27T02:40:08.353Z,5.9
2018-04-27T02:41:18.512Z,5.9
2018-04-27T02:42:28.643Z,5.9
2018-04-27T02:43:38.810Z,5.9
2018-04-27T02:44:48.580Z,5.9
2018-04-27T02:45:58.734Z,5.93
2018-04-27T02:47:08.776Z,5.88
2018-04-27T02:48:18.625Z,5.9
2018-04-27T02:49:28.824Z,5.82
2018-04-27T02:50:38.981Z,5.88
2018-04-27T02:51:49.109Z,5.79
2018-04-27T02:52:59.264Z,5.96
2018-04-27T02:54:09.412Z,5.9
2018-04-27T02:55:19.538Z,5.74
2018-04-27T02:56:29.590Z,5.84
2018-04-27T02:57:39.740Z,5.77
2018-04-27T02:58:50.012Z,5.86
2018-04-27T03:00:00.205Z,5.77
2018-04-27T03:01:10.353Z,5.83
2018-04-27T03:02:20.226Z,5.75
2018-04-27T03:03:30.095Z,5.83
2018-04-27T03:04:40.251Z,5.67
2018-04-27T03:05:50.105Z,5.79
2018-04-27T03:07:00.224Z,5.83
2018-04-27T03:08:10.367Z,5.8
2018-04-27T03:09:20.481Z,5.82
2018-04-27T03:10:30.609Z,5.79
2018-04-27T03:11:40.824Z,5.82
2018-04-27T03:12:51.091Z,5.74
2018-04-27T03:14:01.367Z,5.64
2018-04-27T03:15:11.503Z,5.71
2018-04-27T03:16:21.550Z,5.65
2018-04-27T03:17:31.670Z,5.68
2018-04-27T03:18:41.530Z,5.71
2018-04-27T03:19:51.653Z,5.68
2018-04-27T03:21:01.795Z,5.77
2018-04-27T03:22:11.934Z,5.82
2018-04-27T03:23:22.091Z,5.82
2018-04-27T03:24:32.218Z,5.88
2018-04-27T03:25:42.343Z,5.75
2018-04-27T03:26:52.493Z,5.86
2018-04-27T03:28:02.672Z,5.86
2018-04-27T03:29:12.583Z,5.74
2018-04-27T03:30:22.812Z,5.75
2018-04-27T03:31:32.953Z,5.83
2018-04-27T03:32:43.068Z,5.75
2018-04-27T03:33:52.950Z,5.84
2018-04-27T03:35:03.068Z,5.91
2018-04-27T03:36:13.234Z,5.83
2018-04-27T03:37:23.452Z,5.83
2018-04-27T03:38:33.701Z,5.93
2018-04-27T03:39:43.872Z,5.83
2018-04-27T03:40:54.179Z,5.77
2018-04-27T03:42:04.309Z,5.86
2018-04-27T03:43:14.558Z,5.75
2018-04-27T03:44:24.760Z,5.82
2018-04-27T03:45:34.914Z,5.83
2018-04-27T03:46:45.166Z,5.84
2018-04-27T03:47:55.380Z,5.86
2018-04-27T03:49:05.341Z,5.86
2018-04-27T03:50:15.246Z,5.72
2018-04-27T03:51:25.181Z,5.9
2018-04-27T03:52:35.378Z,5.84
2018-04-27T03:53:45.558Z,5.88
2018-04-27T03:54:55.761Z,5.9
2018-04-27T03:56:06.003Z,5.94
2018-04-27T03:57:16.217Z,5.82
2018-04-27T03:58:26.106Z,5.82
2018-04-27T03:59:36.254Z,5.96
2018-04-27T04:00:46.405Z,5.98
2018-04-27T04:01:56.311Z,5.84
2018-04-27T04:03:06.419Z,5.82
2018-04-27T04:04:16.311Z,5.77
2018-04-27T04:05:26.459Z,5.83
2018-04-27T04:06:36.580Z,5.88
2018-04-27T04:07:46.717Z,5.74
2018-04-27T04:08:56.860Z,5.83
2018-04-27T04:10:07.032Z,5.8
2018-04-27T04:11:17.190Z,5.88
2018-04-27T04:12:27.328Z,5.84
2018-04-27T04:13:37.476Z,5.82
2018-04-27T04:14:47.579Z,5.88
2018-04-27T04:15:57.862Z,5.96
2018-04-27T04:17:08.008Z,6.05
2018-04-27T04:18:17.859Z,5.98
2018-04-27T04:19:27.756Z,6.06
2018-04-27T04:20:37.885Z,6.06
2018-04-27T04:21:48.075Z,6.17
2018-04-27T04:22:57.951Z,6.19
2018-04-27T04:24:08.103Z,6.16
2018-04-27T04:25:18.231Z,6.09
2018-04-27T04:26:28.365Z,6.06
2018-04-27T04:27:38.576Z,6.09
2018-04-27T04:28:49.692Z,6.17
2018-04-27T04:29:59.833Z,6.17
2018-04-27T04:31:09.756Z,6.19
2018-04-27T04:32:20.050Z,6.16
2018-04-27T04:33:30.355Z,6.12
2018-04-27T04:34:40.229Z,6.12
2018-04-27T04:35:50.133Z,6.12
2018-04-27T04:37:00.434Z,6.2
2018-04-27T04:38:10.603Z,6.26
2018-04-27T04:39:20.941Z,6.34
2018-04-27T04:40:31.069Z,6.34
2018-04-27T04:41:41.202Z,6.35
2018-04-27T04:42:51.345Z,6.36
2018-04-27T04:44:01.544Z,6.41
2018-04-27T04:45:12.110Z,6.35
2018-04-27T04:46:22.004Z,6.45
2018-04-27T04:47:32.238Z,6.52
2018-04-27T04:48:42.426Z,6.45
2018-04-27T04:49:52.596Z,6.45
2018-04-27T04:51:02.508Z,6.49
2018-04-27T04:52:12.413Z,6.49
2018-04-27T04:53:23.565Z,6.56
2018-04-27T04:54:33.715Z,6.54
2018-04-27T04:55:43.896Z,6.54
2018-04-27T04:56:54.184Z,6.59
2018-04-27T04:58:04.072Z,6.59
2018-04-27T04:59:13.823Z,6.66
2018-04-27T05:00:23.943Z,6.78
2018-04-27T05:01:34.050Z,6.77
2018-04-27T05:02:44.389Z,6.82
2018-04-27T05:03:55.030Z,6.9
2018-04-27T05:05:05.317Z,6.9
2018-04-27T05:06:15.198Z,6.95
2018-04-27T05:07:25.328Z,6.92
2018-04-27T05:08:35.089Z,6.9
2018-04-27T05:09:45.211Z,6.93
2018-04-27T05:10:55.541Z,7.05
2018-04-27T05:12:05.378Z,6.99
2018-04-27T05:13:15.500Z,7.02
2018-04-27T05:14:25.646Z,7.02
2018-04-27T05:15:35.768Z,6.93
2018-04-27T05:16:45.276Z,6.87
2018-04-27T05:17:55.421Z,6.84
2018-04-27T05:19:05.539Z,6.77
2018-04-27T05:20:15.463Z,6.54
2018-04-27T05:21:25.579Z,6.49
2018-04-27T05:22:35.691Z,6.39
2018-04-27T05:23:45.813Z,6.41
2018-04-27T05:24:56.017Z,6.41
2018-04-27T05:26:06.252Z,6.31
2018-04-27T05:27:16.386Z,6.26
2018-04-27T05:28:26.801Z,6.28
2018-04-27T05:29:36.974Z,6.34
2018-04-27T05:30:47.235Z,6.26
2018-04-27T05:31:57.447Z,6.3
2018-04-27T05:33:07.577Z,6.44
2018-04-27T05:34:17.842Z,6.42
2018-04-27T05:35:28.010Z,6.46
2018-04-27T05:36:38.163Z,6.48
2018-04-27T05:37:48.308Z,6.49
2018-04-27T05:38:58.465Z,6.52
2018-04-27T05:40:08.600Z,6.59
2018-04-27T05:41:18.471Z,6.48
2018-04-27T05:42:28.595Z,6.54
2018-04-27T05:43:38.795Z,6.48
2018-04-27T05:44:49.968Z,6.46
2018-04-27T05:46:00.197Z,6.49
2018-04-27T05:47:10.334Z,6.59
2018-04-27T05:48:20.565Z,6.62
2018-04-27T05:49:30.203Z,6.53
2018-04-27T05:50:40.141Z,6.52
2018-04-27T05:51:50.271Z,6.72
2018-04-27T05:53:00.439Z,6.63
2018-04-27T05:54:10.659Z,6.66
2018-04-27T05:55:20.845Z,6.66
2018-04-27T05:56:30.968Z,6.62
2018-04-27T05:57:41.079Z,6.69
2018-04-27T05:58:50.978Z,6.71
2018-04-27T06:00:01.197Z,6.69
2018-04-27T06:01:11.345Z,6.77
2018-04-27T06:02:21.120Z,6.75
2018-04-27T06:03:31.236Z,6.79
2018-04-27T06:04:41.500Z,6.84
2018-04-27T06:05:51.645Z,6.82
2018-04-27T06:07:01.785Z,6.82
2018-04-27T06:08:11.918Z,6.78
2018-04-27T06:09:22.064Z,6.85
2018-04-27T06:10:32.241Z,6.9
2018-04-27T06:11:42.395Z,6.9
2018-04-27T06:12:52.563Z,7.03
2018-04-27T06:14:02.714Z,7.02
2018-04-27T06:15:12.855Z,7.13
2018-04-27T06:16:23.007Z,7.11
2018-04-27T06:17:33.181Z,7.2
2018-04-27T06:18:43.346Z,7.2
2018-04-27T06:19:53.287Z,7.26
2018-04-27T06:21:03.518Z,7.28
2018-04-27T06:22:13.645Z,7.37
2018-04-27T06:23:23.538Z,7.44
2018-04-27T06:24:33.665Z,7.51
2018-04-27T06:25:44.090Z,7.58
2018-04-27T06:26:54.497Z,7.61
2018-04-27T06:28:04.641Z,7.74
2018-04-27T06:29:14.905Z,7.7
2018-04-27T06:30:24.808Z,7.79
2018-04-27T06:31:34.928Z,7.82
2018-04-27T06:32:45.082Z,7.79
2018-04-27T06:33:55.328Z,7.85
2018-04-27T06:35:05.498Z,7.74
2018-04-27T06:36:15.730Z,7.77
2018-04-27T06:37:25.965Z,7.84
2018-04-27T06:38:36.152Z,7.77
2018-04-27T06:39:46.316Z,7.8
2018-04-27T06:40:56.232Z,7.82
2018-04-27T06:42:06.414Z,7.82
2018-04-27T06:43:16.548Z,7.79
2018-04-27T06:44:26.701Z,7.74
2018-04-27T06:45:37.904Z,7.77
2018-04-27T06:46:47.828Z,7.79
2018-04-27T06:47:57.982Z,7.79
2018-04-27T06:49:08.170Z,7.87
2018-04-27T06:50:18.365Z,7.9
2018-04-27T06:51:28.350Z,7.92
2018-04-27T06:52:38.609Z,8.05
2018-04-27T06:53:48.735Z,8.12
2018-04-27T06:54:58.918Z,8.2
2018-04-27T06:56:09.056Z,8.24
2018-04-27T06:57:19.247Z,8.32
2018-04-27T06:58:29.584Z,8.35
2018-04-27T06:59:39.743Z,8.39
2018-04-27T07:00:49.891Z,8.42
2018-04-27T07:02:00.178Z,8.42
2018-04-27T07:03:10.383Z,8.52
2018-04-27T07:04:20.638Z,8.55
2018-04-27T07:05:30.869Z,8.55
2018-04-27T07:06:41.001Z,8.6
2018-04-27T07:07:50.874Z,8.57
2018-04-27T07:09:01.762Z,8.52
2018-04-27T07:10:11.884Z,8.77
2018-04-27T07:11:21.758Z,8.7
2018-04-27T07:13:45.776Z,8.8
2018-04-27T07:16:11.892Z,8.92
2018-04-27T07:17:22.012Z,8.97
2018-04-27T07:18:32.141Z,9.01
2018-04-27T07:19:45.260Z,9.11
2018-04-27T07:20:55.450Z,9.22
2018-04-27T07:22:05.577Z,9.23
2018-04-27T07:23:15.448Z,9.27
2018-04-27T07:24:25.658Z,9.34
2018-04-27T07:25:35.840Z,9.44
2018-04-27T07:26:46.038Z,9.4
2018-04-27T07:27:56.254Z,9.55
2018-04-27T07:29:06.407Z,9.6
2018-04-27T07:30:16.297Z,9.58
2018-04-27T07:31:27.418Z,9.71
2018-04-27T07:32:37.565Z,9.77
2018-04-27T07:33:47.706Z,9.83
2018-04-27T07:34:57.867Z,9.85
2018-04-27T07:36:08.012Z,9.88
2018-04-27T07:37:18.137Z,9.96
2018-04-27T07:38:28.270Z,10.02
2018-04-27T07:39:38.567Z,10.05
2018-04-27T07:40:49.186Z,10.08
2018-04-27T07:41:59.365Z,10.13
2018-04-27T07:43:09.228Z,10.21
2018-04-27T07:44:19.365Z,10.21
2018-04-27T07:45:29.665Z,10.34
2018-04-27T07:46:39.802Z,10.27
2018-04-27T07:47:49.989Z,10.36
2018-04-27T07:49:00.155Z,10.42
2018-04-27T07:50:10.106Z,10.57
2018-04-27T07:51:21.572Z,10.57
2018-04-27T07:52:31.866Z,10.67
2018-04-27T07:53:42.052Z,10.72
2018-04-27T07:54:54.980Z,10.77
2018-04-27T07:56:07.558Z,10.91
2018-04-27T07:57:17.447Z,11.06
2018-04-27T07:58:27.341Z,11.13
2018-04-27T07:59:40.029Z,11.2
2018-04-27T08:00:50.207Z,11.34
2018-04-27T08:02:00.480Z,11.33
2018-04-27T08:03:13.083Z,11.49
2018-04-27T08:04:23.302Z,11.69
2018-04-27T08:06:51.847Z,12.04
2018-04-27T08:08:01.995Z,12.09
2018-04-27T08:09:16.065Z,12.29
2018-04-27T08:10:26.193Z,12.5
2018-04-27T08:11:36.366Z,12.57
2018-04-27T08:14:02.531Z,12.85
2018-04-27T08:15:13.931Z,12.96
2018-04-27T08:16:24.097Z,13.06
2018-04-27T08:17:34.278Z,13.21
2018-04-27T08:21:14.030Z,14.62
2018-04-27T08:22:24.163Z,15.3
2018-04-27T08:23:34.329Z,16.06
2018-04-27T08:24:44.251Z,16.53
2018-04-27T08:25:54.430Z,17.01
2018-04-27T08:27:04.576Z,17.76
2018-04-27T08:28:14.476Z,18.26
2018-04-27T08:29:24.348Z,18.57
2018-04-27T08:30:34.497Z,18.97
2018-04-27T08:31:44.725Z,19.24
2018-04-27T08:32:54.891Z,19.46
2018-04-27T08:34:05.150Z,19.85
2018-04-27T08:35:15.307Z,20.11
2018-04-27T08:36:25.576Z,20.45
2018-04-27T08:37:35.714Z,20.57
2018-04-27T08:38:45.826Z,20.79
2018-04-27T08:39:55.987Z,20.98
2018-04-27T08:41:06.126Z,21.12
2018-04-27T08:42:16.315Z,21.12
2018-04-27T08:43:26.483Z,21.12
2018-04-27T08:44:36.791Z,21.22
2018-04-27T08:45:46.984Z,21.43
2018-04-27T08:46:56.946Z,21.33
2018-04-27T08:48:07.115Z,21.23
2018-04-27T08:49:17.266Z,21.15
2018-04-27T08:50:27.340Z,21.09
2018-04-27T08:51:37.103Z,20.98
2018-04-27T08:52:47.269Z,21.09
2018-04-27T08:53:57.438Z,21.06
2018-04-27T08:55:07.830Z,21.16
2018-04-27T08:56:17.720Z,21.23
2018-04-27T08:57:27.869Z,21.23
2018-04-27T08:58:38.133Z,21.43
2018-04-27T08:59:48.291Z,21.54
2018-04-27T09:00:58.450Z,21.72
2018-04-27T09:02:08.646Z,21.86
2018-04-27T09:03:18.671Z,22.09
2018-04-27T09:04:28.893Z,22.23
2018-04-27T09:05:39.094Z,22.4
2018-04-27T09:06:49.472Z,22.35
2018-04-27T09:07:59.708Z,22.46
2018-04-27T09:09:09.916Z,22.3
2018-04-27T09:10:20.052Z,22.28
2018-04-27T09:11:30.257Z,22.26
2018-04-27T09:12:40.400Z,22.3
2018-04-27T09:13:50.204Z,22.09
2018-04-27T09:15:00.334Z,22.06
2018-04-27T09:16:10.505Z,22.02
2018-04-27T09:17:20.763Z,21.98
2018-04-27T09:18:30.929Z,21.86
2018-04-27T09:19:41.070Z,22.02
2018-04-27T09:20:51.222Z,22.11
2018-04-27T09:22:02.353Z,21.98
2018-04-27T09:23:12.537Z,21.93
2018-04-27T09:24:22.867Z,21.56
2018-04-27T09:25:33.065Z,21.38
2018-04-27T09:26:43.261Z,21.58
2018-04-27T09:27:53.485Z,21.73
2018-04-27T09:29:03.411Z,21.58
2018-04-27T09:30:13.590Z,21.6
2018-04-27T09:31:23.477Z,21.56
2018-04-27T09:32:33.620Z,21.56
2018-04-27T09:33:43.759Z,21.56
2018-04-27T09:34:53.915Z,21.57
2018-04-27T09:36:04.074Z,21.56
2018-04-27T09:37:14.253Z,21.5
2018-04-27T09:38:24.434Z,21.61
2018-04-27T09:39:34.732Z,21.65
2018-04-27T09:40:45.014Z,21.83
2018-04-27T09:41:55.207Z,21.72
2018-04-27T09:43:05.435Z,21.48
2018-04-27T09:44:15.606Z,21.46
2018-04-27T09:45:25.433Z,21.34
2018-04-27T09:46:35.622Z,21.27
2018-04-27T09:47:45.557Z,21.22
2018-04-27T09:48:55.707Z,21.46
2018-04-27T09:50:05.892Z,21.61
2018-04-27T09:51:16.045Z,21.79
2018-04-27T09:52:26.254Z,21.94
2018-04-27T09:53:36.444Z,22.06
2018-04-27T09:54:46.593Z,22.01
2018-04-27T09:55:56.779Z,22.03
2018-04-27T09:57:07.075Z,22.13
2018-04-27T09:58:17.276Z,22.2
2018-04-27T09:59:27.543Z,22.38
2018-04-27T10:00:37.743Z,22.48
2018-04-27T10:01:47.954Z,22.26
2018-04-27T10:02:57.877Z,21.75
2018-04-27T10:04:07.705Z,21.12
2018-04-27T10:05:17.894Z,20.64
2018-04-27T10:06:28.128Z,20.53
2018-04-27T10:07:38.303Z,20.2
2018-04-27T10:08:48.442Z,20.05
2018-04-27T10:09:58.336Z,20.07
2018-04-27T10:11:08.475Z,20.23
2018-04-27T10:12:18.111Z,20.43
2018-04-27T10:13:28.260Z,20.57
2018-04-27T10:14:38.136Z,20.57
2018-04-27T10:15:48.338Z,20.76
2018-04-27T10:16:58.765Z,20.78
2018-04-27T10:18:09.042Z,20.39
2018-04-27T10:19:19.278Z,20.39
2018-04-27T10:20:29.312Z,20.49
2018-04-27T10:21:39.588Z,20.54
2018-04-27T10:22:49.736Z,20.28
2018-04-27T10:23:59.903Z,20.3
2018-04-27T10:25:09.822Z,20.48
2018-04-27T10:26:19.975Z,20.83
2018-04-27T10:27:30.153Z,20.75
2018-04-27T10:28:40.308Z,20.54
2018-04-27T10:29:50.465Z,20.08
2018-04-27T10:31:01.856Z,19.74
2018-04-27T10:32:12.053Z,19.63
2018-04-27T10:33:21.947Z,19.68
2018-04-27T10:34:32.193Z,19.28
2018-04-27T10:35:42.351Z,19.12
2018-04-27T10:36:52.265Z,18.97
2018-04-27T10:38:02.502Z,19.08
2018-04-27T10:39:12.672Z,19.16
2018-04-27T10:40:22.833Z,19.28
2018-04-27T10:41:33.149Z,19.64
2018-04-27T10:42:43.312Z,19.71
2018-04-27T10:43:53.626Z,19.88
2018-04-27T10:45:03.803Z,19.92
2018-04-27T10:46:13.994Z,19.92
2018-04-27T10:47:23.922Z,19.92
2018-04-27T10:48:34.090Z,19.97
2018-04-27T10:49:44.278Z,20.17
2018-04-27T10:50:54.413Z,20.27
2018-04-27T10:52:04.569Z,20.41
2018-04-27T10:53:14.249Z,20.23
2018-04-27T10:54:24.456Z,19.92
2018-04-27T10:55:34.352Z,19.71
2018-04-27T10:56:44.497Z,19.61
2018-04-27T10:57:54.419Z,19.67
2018-04-27T10:59:04.576Z,19.6
2018-04-27T11:00:14.787Z,19.46
2018-04-27T11:01:24.903Z,19.63
2018-04-27T11:02:35.190Z,19.7
2018-04-27T11:03:45.465Z,19.82
2018-04-27T11:04:55.635Z,19.86
2018-04-27T11:06:05.796Z,19.78
2018-04-27T11:07:16.075Z,19.74
2018-04-27T11:08:26.288Z,19.56
2018-04-27T11:09:36.469Z,19.52
2018-04-27T11:10:46.776Z,19.48
2018-04-27T11:11:56.960Z,19.53
2018-04-27T11:13:07.209Z,19.7
2018-04-27T11:14:17.099Z,19.74
2018-04-27T11:15:27.247Z,19.82
2018-04-27T11:16:37.396Z,19.56
2018-04-27T11:17:47.711Z,19.52
2018-04-27T11:18:57.874Z,19.25
2018-04-27T11:20:08.074Z,19.18
2018-04-27T11:21:18.136Z,19.13
2018-04-27T11:22:28.301Z,19.16
2018-04-27T11:23:38.468Z,19.19
2018-04-27T11:24:48.652Z,18.94
2018-04-27T11:25:58.595Z,18.57
2018-04-27T11:27:08.902Z,18.17
2018-04-27T11:28:19.164Z,18.09
2018-04-27T11:29:29.073Z,17.91
2018-04-27T11:30:39.248Z,17.67
2018-04-27T11:31:49.170Z,17.64
2018-04-27T11:32:59.363Z,17.75
2018-04-27T11:34:09.674Z,17.86
2018-04-27T11:35:19.644Z,17.91
2018-04-27T11:36:29.802Z,17.92
2018-04-27T11:37:39.454Z,18.09
2018-04-27T11:38:50.601Z,18.12
2018-04-27T11:40:00.404Z,18.41
2018-04-27T11:41:10.587Z,18.6
2018-04-27T11:42:20.999Z,18.97
2018-04-27T11:43:31.175Z,19
2018-04-27T11:44:41.327Z,19.28
2018-04-27T11:45:52.451Z,19.31
2018-04-27T11:47:02.654Z,19.58
2018-04-27T11:48:12.850Z,19.56
2018-04-27T11:49:23.081Z,19.5
2018-04-27T11:50:33.276Z,19.24
2018-04-27T11:51:43.532Z,19.18
2018-04-27T11:52:53.153Z,19.19
2018-04-27T11:54:03.457Z,19.08
2018-04-27T11:55:13.717Z,19.08
2018-04-27T11:56:23.882Z,18.97
2018-04-27T11:57:34.109Z,19.1
2018-04-27T11:58:44.279Z,19.15
2018-04-27T11:59:54.438Z,19.15
2018-04-27T12:01:05.878Z,19.25
2018-04-27T12:02:16.039Z,19.31
2018-04-27T12:03:26.260Z,19.27
2018-04-27T12:04:36.422Z,19.34
2018-04-27T12:05:46.576Z,19.18
2018-04-27T12:06:56.769Z,19.15
2018-04-27T12:08:07.037Z,19
2018-04-27T12:09:17.344Z,18.93
2018-04-27T12:10:27.518Z,18.59
2018-04-27T12:11:37.755Z,18.41
2018-04-27T12:12:47.948Z,18.07
2018-04-27T12:13:58.157Z,17.86
2018-04-27T12:15:08.331Z,17.86
2018-04-27T12:16:18.573Z,17.89
2018-04-27T12:17:28.835Z,18
2018-04-27T12:18:39.188Z,17.97
2018-04-27T12:19:49.087Z,17.89
2018-04-27T12:21:00.220Z,18.01
2018-04-27T12:22:10.159Z,18.07
2018-04-27T12:23:19.787Z,18.31
2018-04-27T12:24:30.064Z,18.23
2018-04-27T12:25:39.980Z,18.05
2018-04-27T12:26:50.177Z,17.98
2018-04-27T12:28:00.395Z,17.94
2018-04-27T12:29:10.616Z,17.86
2018-04-27T12:30:20.892Z,17.75
2018-04-27T12:31:31.327Z,17.64
2018-04-27T12:32:41.841Z,17.6
2018-04-27T12:33:52.023Z,17.65
2018-04-27T12:35:02.220Z,17.76
2018-04-27T12:36:12.168Z,17.86
2018-04-27T12:37:22.343Z,17.97
2018-04-27T12:38:32.513Z,17.86
2018-04-27T12:39:42.712Z,17.72
2018-04-27T12:40:52.913Z,17.6
2018-04-27T12:42:03.092Z,17.39
2018-04-27T12:43:13.265Z,17.24
2018-04-27T12:44:23.482Z,17.23
2018-04-27T12:45:33.647Z,17.12
2018-04-27T12:46:43.472Z,17.01
2018-04-27T12:47:53.760Z,16.91
2018-04-27T12:49:04.071Z,17.01
2018-04-27T12:50:14.011Z,16.93
2018-04-27T12:51:23.976Z,17.08
2018-04-27T12:52:34.177Z,17.17
2018-04-27T12:53:44.358Z,17.16
2018-04-27T12:54:54.589Z,17.17
2018-04-27T12:56:04.850Z,17.09
2018-04-27T12:57:15.052Z,17.01
2018-04-27T12:58:25.283Z,16.89
2018-04-27T12:59:35.501Z,16.68
2018-04-27T13:00:45.672Z,16.65
2018-04-27T13:01:56.062Z,16.64
2018-04-27T13:03:06.316Z,16.39
2018-04-27T13:04:16.563Z,16.46
2018-04-27T13:05:26.704Z,16.43
2018-04-27T13:06:36.400Z,16.1
2018-04-27T13:07:46.597Z,16.06
2018-04-27T13:08:56.592Z,15.8
2018-04-27T13:10:06.786Z,15.8
2018-04-27T13:11:16.980Z,15.84
2018-04-27T13:12:27.151Z,15.84
2018-04-27T13:13:38.361Z,15.92
2018-04-27T13:14:48.529Z,16.02
2018-04-27T13:15:58.714Z,16.17
2018-04-27T13:17:08.933Z,16.2
2018-04-27T13:18:18.869Z,16.24
2018-04-27T13:19:28.796Z,16.32
2018-04-27T13:20:38.651Z,16.44
2018-04-27T13:21:48.837Z,16.43
2018-04-27T13:22:58.831Z,16.46
2018-04-27T13:24:09.049Z,16.46
2018-04-27T13:25:19.308Z,16.44
2018-04-27T13:26:29.608Z,16.43
2018-04-27T13:27:40.219Z,16.47
2018-04-27T13:28:50.499Z,16.43
2018-04-27T13:30:01.641Z,16.43
2018-04-27T13:31:11.840Z,16.39
2018-04-27T13:32:22.151Z,16.43
2018-04-27T13:33:32.463Z,16.53
2018-04-27T13:34:43.627Z,16.47
2018-04-27T13:35:53.812Z,16.5
2018-04-27T13:37:04.228Z,16.49
2018-04-27T13:38:14.424Z,16.39
2018-04-27T13:39:24.658Z,16.31
2018-04-27T13:40:34.825Z,16.2
2018-04-27T13:41:45.047Z,16.14
2018-04-27T13:42:55.243Z,16.17
2018-04-27T13:44:05.558Z,16.09
2018-04-27T13:45:15.748Z,16.04
2018-04-27T13:46:25.919Z,16.01
2018-04-27T13:47:36.115Z,16.1
2018-04-27T13:48:46.324Z,16.14
2018-04-27T13:49:56.511Z,16.2
2018-04-27T13:51:06.748Z,16.27
2018-04-27T13:52:17.103Z,16.17
2018-04-27T13:53:27.301Z,16.2
2018-04-27T13:54:37.518Z,16.27
2018-04-27T13:55:47.781Z,16.17
2018-04-27T13:56:57.746Z,16.1
2018-04-27T13:58:07.661Z,16.1
2018-04-27T13:59:17.928Z,16.11
2018-04-27T14:00:28.131Z,16.09
2018-04-27T14:01:38.309Z,16.14
2018-04-27T14:02:48.981Z,16.16
2018-04-27T14:03:59.084Z,16.21
2018-04-27T14:05:09.219Z,16.16
2018-04-27T14:06:19.409Z,16.29
2018-04-27T14:07:29.667Z,16.21
2018-04-27T14:08:39.934Z,16.25
2018-04-27T14:09:50.451Z,16.19
2018-04-27T14:11:00.526Z,16.2
2018-04-27T14:12:10.709Z,16.17
2018-04-27T14:13:20.944Z,16.16
2018-04-27T14:14:30.771Z,16.24
2018-04-27T14:15:40.969Z,16.32
2018-04-27T14:16:51.189Z,16.29
2018-04-27T14:18:01.433Z,16.14
2018-04-27T14:19:11.625Z,15.94
2018-04-27T14:20:21.893Z,15.94
2018-04-27T14:21:32.563Z,15.94
2018-04-27T14:22:42.756Z,15.92
2018-04-27T14:23:53.018Z,15.88
2018-04-27T14:25:03.230Z,15.73
2018-04-27T14:26:13.404Z,15.76
2018-04-27T14:27:23.678Z,15.78
2018-04-27T14:28:33.947Z,15.84
2018-04-27T14:29:44.135Z,15.82
2018-04-27T14:30:54.316Z,15.87
2018-04-27T14:32:04.533Z,15.84
2018-04-27T14:33:14.458Z,15.87
2018-04-27T14:34:24.651Z,15.99
2018-04-27T14:35:34.591Z,15.95
2018-04-27T14:36:44.853Z,15.91
2018-04-27T14:37:55.112Z,15.79
2018-04-27T14:39:05.383Z,15.89
2018-04-27T14:40:15.672Z,15.87
2018-04-27T14:41:25.844Z,15.88
2018-04-27T14:42:36.005Z,15.8
2018-04-27T14:43:46.256Z,15.87
2018-04-27T14:44:56.485Z,15.87
2018-04-27T14:46:06.660Z,15.8
2018-04-27T14:47:16.971Z,15.91
2018-04-27T14:48:26.955Z,15.88
2018-04-27T14:49:37.147Z,15.84
2018-04-27T14:50:47.301Z,15.84
2018-04-27T14:51:57.491Z,15.78
2018-04-27T14:53:07.346Z,15.87
2018-04-27T14:54:17.115Z,15.84
2018-04-27T14:55:27.450Z,15.76
2018-04-27T14:56:37.661Z,15.87
2018-04-27T14:57:47.926Z,15.84
2018-04-27T14:58:58.194Z,15.87
2018-04-27T15:00:08.367Z,15.94
2018-04-27T15:01:18.248Z,15.95
2018-04-27T15:02:28.407Z,15.79
2018-04-27T15:03:38.232Z,15.95
2018-04-27T15:04:48.428Z,15.88
2018-04-27T15:05:58.824Z,15.89
2018-04-27T15:07:09.229Z,15.87
2018-04-27T15:08:19.403Z,15.84
2018-04-27T15:09:29.571Z,15.8
2018-04-27T15:10:39.902Z,15.69
2018-04-27T15:11:50.075Z,15.68
2018-04-27T15:13:00.294Z,15.66
2018-04-27T15:14:10.499Z,15.73
2018-04-27T15:15:20.712Z,15.58
2018-04-27T15:16:30.913Z,15.61
2018-04-27T15:17:41.081Z,15.66
2018-04-27T15:18:51.249Z,15.6
2018-04-27T15:20:01.113Z,15.69
2018-04-27T15:21:11.365Z,15.64
2018-04-27T15:22:21.610Z,15.68
2018-04-27T15:23:31.919Z,15.72
2018-04-27T15:24:42.132Z,15.75
2018-04-27T15:25:52.288Z,15.8
2018-04-27T15:27:03.448Z,15.79
2018-04-27T15:28:13.712Z,15.78